Dickinson, ND

11:52 AM MST on February 06, 2016 (GMT -0700)
Southview | | Change Station
CLOSE
Current Station
Personal Weather Station
Location: Dickinson, ND
Elevation: 2434 ft
Nearby Weather Stations
Active Advisory: High Wind Warning

Elev 2434 ft 46.86 °N, 102.78 °W | Updated 3 minutes ago

Mostly Cloudy
Mostly Cloudy
48.7 °F
Feels Like 45 °F
N
8.9
Wind Variable Wind from SW

Today
High -- | Low -- °F
--% Chance of Precip.
Yesterday
High -- | Low -- °F
Precip. -- in
Pressure 29.81 in
Visibility 10.0 miles
Clouds Few 8500 ft
Windchill 45 °F
Dew Point 26 °F
Humidity 41%
Rainfall 0.00 in
Snow Depth Not available.
7:09 AM 5:01 PM
Waning Crescent, 4% visible
METAR KDIK 061756Z AUTO 26018KT 10SM FEW085 08/M06 A2975 RMK AO2 SLP092 T00781056 10078 20006 58015
Pressure 29.81 in
Visibility 10.0 miles
Clouds Few 8500 ft
Windchill 45 °F
Dew Point 26 °F
Humidity 41%
Rainfall 0.00 in
Snow Depth Not available.
7:09 AM 5:01 PM
Waning Crescent, 4% visible
METAR KDIK 061756Z AUTO 26018KT 10SM FEW085 08/M06 A2975 RMK AO2 SLP092 T00781056 10078 20006 58015

10-Day Weather Forecast

Almanac

Astronomy

Feb. 06, 2016 Rise Set
Actual Time
Civil Twilight
Nautical Twilight
Astronomical Twilight
Moon
Length of Visible Light
Length of Day
Tomorrow will be .
, % of the Moon is Illuminated

Today's Extremes

State Highs State Lows

Community

WunderPhotos

Upload Photos

1,891,033 photos uploaded!

WunderBlog® & News

Nearby

Air Quality

  Air Quality AQ Index Pollutant
Not available.

Snow Depth

Station Depth Elevation

Earthquake Activity

City Distance Mag. Time & Date
Minimum magnitude displayed is 2.5.

Coastal Water Temperatures

Place Temperature

Stations

Nearby Weather Stations

Station Location Temp. Windchill Dew Point Humidity Wind Precip. Elev Updated Type
                   

Watches & Warnings

High Wind Warning
Issued: 8:37 AM MST Feb. 6, 2016 – National Weather Service

... High Wind Warning remains in effect until 9 PM CST /8 PM MST/
Sunday...

* timing... this afternoon through early Sunday evening.

* Winds... northwest winds gusting up to 65 mph.

* Impacts... travel may become hazardous over western North
Dakota.

Precautionary/preparedness actions...

A High Wind Warning means a hazardous high wind event is expected
or occurring. Sustained wind speeds of at least 40 mph or gusts
of 58 mph or more can lead to property damage.